createdAt,value
2022-09-28T00:00:47.824Z,945.56
2022-09-28T00:01:40.383Z,945.56
2022-09-28T00:03:32.771Z,945.60
2022-09-28T00:04:32.905Z,945.59
2022-09-28T00:06:00.665Z,945.55
2022-09-28T00:06:32.581Z,945.52
2022-09-28T00:07:32.422Z,945.57
2022-09-28T00:08:32.434Z,945.51
2022-09-28T00:09:32.474Z,945.52
2022-09-28T00:10:32.383Z,945.50
2022-09-28T00:11:32.431Z,945.48
2022-09-28T00:12:32.398Z,945.48
2022-09-28T00:13:33.068Z,945.50
2022-09-28T00:14:32.392Z,945.48
2022-09-28T00:15:32.370Z,945.44
2022-09-28T00:16:32.297Z,945.42
2022-09-28T00:17:32.341Z,945.38
2022-09-28T00:18:32.342Z,945.37
2022-09-28T00:19:34.046Z,945.32
2022-09-28T00:20:32.302Z,945.30
2022-09-28T00:21:32.952Z,945.31
2022-09-28T00:22:32.282Z,945.27
2022-09-28T00:23:32.236Z,945.30
2022-09-28T00:24:32.230Z,945.27
2022-09-28T00:25:32.203Z,945.27
2022-09-28T00:26:32.220Z,945.24
2022-09-28T00:27:32.204Z,945.21
2022-09-28T00:28:32.312Z,945.13
2022-09-28T00:29:32.131Z,945.09
2022-09-28T00:30:32.132Z,945.06
2022-09-28T00:31:32.179Z,945.08
2022-09-28T00:32:32.121Z,945.05
2022-09-28T00:33:32.086Z,944.99
2022-09-28T00:34:32.140Z,945.00
2022-09-28T00:35:32.089Z,945.00
2022-09-28T00:36:32.008Z,944.97
2022-09-28T00:37:32.055Z,944.95
2022-09-28T00:38:32.036Z,944.90
2022-09-28T00:39:32.149Z,944.90
2022-09-28T00:40:32.029Z,944.89
2022-09-28T00:41:32.023Z,944.89
2022-09-28T00:42:31.938Z,944.84
2022-09-28T00:43:32.038Z,944.82
2022-09-28T00:44:31.958Z,944.77
2022-09-28T00:45:31.974Z,944.79
2022-09-28T00:46:31.947Z,944.76
2022-09-28T00:47:31.868Z,944.73
2022-09-28T00:48:31.878Z,944.82
2022-09-28T00:49:31.840Z,944.80
2022-09-28T00:50:31.861Z,944.77
2022-09-28T00:51:31.892Z,944.77
2022-09-28T00:52:31.810Z,944.75
2022-09-28T00:53:31.806Z,944.78
2022-09-28T00:54:31.789Z,944.72
2022-09-28T00:55:31.828Z,944.71
2022-09-28T00:56:31.813Z,944.72
2022-09-28T00:57:31.735Z,944.63
2022-09-28T00:58:31.758Z,944.69
2022-09-28T00:59:31.775Z,944.69
2022-09-28T01:00:31.796Z,944.63
2022-09-28T01:01:31.708Z,944.58
2022-09-28T01:02:31.824Z,944.53
2022-09-28T01:03:31.722Z,944.55
2022-09-28T01:04:31.695Z,944.54
2022-09-28T01:05:31.687Z,944.50
2022-09-28T01:06:31.646Z,944.50
2022-09-28T01:07:31.685Z,944.49
2022-09-28T01:08:31.608Z,944.49
2022-09-28T01:09:31.599Z,944.49
2022-09-28T01:10:31.594Z,944.46
2022-09-28T01:11:31.647Z,944.44
2022-09-28T01:12:31.617Z,944.45
2022-09-28T01:13:31.536Z,944.42
2022-09-28T01:14:31.537Z,944.43
2022-09-28T01:15:31.528Z,944.35
2022-09-28T01:16:31.597Z,944.37
2022-09-28T01:17:31.466Z,944.38
2022-09-28T01:18:31.524Z,944.38
2022-09-28T01:19:31.549Z,944.33
2022-09-28T01:20:31.443Z,944.38
2022-09-28T01:21:31.506Z,944.35
2022-09-28T01:22:31.459Z,944.30
2022-09-28T01:23:31.414Z,944.30
2022-09-28T01:24:31.401Z,944.34
2022-09-28T01:25:31.373Z,944.35
2022-09-28T01:26:31.405Z,944.27
2022-09-28T01:27:31.355Z,944.26
2022-09-28T01:28:31.384Z,944.25
2022-09-28T01:29:31.414Z,944.17
2022-09-28T01:30:31.316Z,944.15
2022-09-28T01:31:31.366Z,944.10
2022-09-28T01:32:31.323Z,944.03
2022-09-28T01:33:31.375Z,944.01
2022-09-28T01:34:31.254Z,943.99
2022-09-28T01:35:31.263Z,943.96
2022-09-28T01:36:31.274Z,943.98
2022-09-28T01:37:31.266Z,944.03
2022-09-28T01:38:31.252Z,944.00
2022-09-28T01:39:31.204Z,944.02
2022-09-28T01:40:31.292Z,944.04
2022-09-28T01:41:31.193Z,943.99
2022-09-28T01:42:31.186Z,943.97
2022-09-28T01:43:31.203Z,943.97
2022-09-28T01:44:31.124Z,943.97
2022-09-28T01:45:31.385Z,943.92
2022-09-28T01:46:31.251Z,943.86
2022-09-28T01:47:31.101Z,943.84
2022-09-28T01:48:31.060Z,943.78
2022-09-28T01:49:31.147Z,943.75
2022-09-28T01:50:31.091Z,943.77
2022-09-28T01:51:31.090Z,943.73
2022-09-28T01:52:31.021Z,943.74
2022-09-28T01:53:31.022Z,943.73
2022-09-28T01:54:30.981Z,943.73
2022-09-28T01:55:31.060Z,943.75
2022-09-28T01:56:31.002Z,943.70
2022-09-28T01:57:31.012Z,943.66
2022-09-28T01:58:30.983Z,943.63
2022-09-28T01:59:31.001Z,943.63
2022-09-28T02:00:31.098Z,943.62
2022-09-28T02:01:30.903Z,943.60
2022-09-28T02:02:30.927Z,943.55
2022-09-28T02:03:30.898Z,943.50
2022-09-28T02:04:30.938Z,943.53
2022-09-28T02:05:30.884Z,943.53
2022-09-28T02:06:30.829Z,943.51
2022-09-28T02:07:30.810Z,943.46
2022-09-28T02:08:30.799Z,943.44
2022-09-28T02:09:33.810Z,943.37
2022-09-28T02:10:30.882Z,943.41
2022-09-28T02:11:30.919Z,943.40
2022-09-28T02:12:30.766Z,943.34
2022-09-28T02:13:30.746Z,943.30
2022-09-28T02:14:30.805Z,943.25
2022-09-28T02:15:30.713Z,943.26
2022-09-28T02:16:30.795Z,943.21
2022-09-28T02:17:30.687Z,943.21
2022-09-28T02:18:30.691Z,943.15
2022-09-28T02:19:30.692Z,943.15
2022-09-28T02:20:30.670Z,943.08
2022-09-28T02:21:30.618Z,943.07
2022-09-28T02:22:30.609Z,943.07
2022-09-28T02:23:30.923Z,943.04
2022-09-28T02:24:30.669Z,943.00
2022-09-28T02:25:30.640Z,943.04
2022-09-28T02:26:30.596Z,943.03
2022-09-28T02:27:30.596Z,943.07
2022-09-28T02:28:30.614Z,943.02
2022-09-28T02:29:30.597Z,942.98
2022-09-28T02:30:31.247Z,942.98
2022-09-28T02:31:30.578Z,942.99
2022-09-28T02:32:30.516Z,942.92
2022-09-28T02:33:30.663Z,942.92
2022-09-28T02:34:30.547Z,942.94
2022-09-28T02:35:30.507Z,942.93
2022-09-28T02:36:30.424Z,942.90
2022-09-28T02:37:30.584Z,942.88
2022-09-28T02:38:30.484Z,942.88
2022-09-28T02:39:30.435Z,942.86
2022-09-28T02:40:30.462Z,942.79
2022-09-28T02:41:30.458Z,942.73
2022-09-28T02:42:30.404Z,942.73
2022-09-28T02:43:30.368Z,942.70
2022-09-28T02:44:30.373Z,942.69
2022-09-28T02:45:30.354Z,942.71
2022-09-28T02:46:30.350Z,942.65
2022-09-28T02:47:30.281Z,942.58
2022-09-28T02:48:43.092Z,942.55
2022-09-28T02:49:31.467Z,942.55
2022-09-28T02:50:30.234Z,942.56
2022-09-28T02:51:30.242Z,942.57
2022-09-28T02:52:30.313Z,942.56
2022-09-28T02:53:30.312Z,942.55
2022-09-28T02:54:30.266Z,942.49
2022-09-28T02:55:30.226Z,942.50
2022-09-28T02:56:30.171Z,942.49
2022-09-28T02:57:30.236Z,942.46
2022-09-28T02:58:30.153Z,942.44
2022-09-28T02:59:30.304Z,942.48
2022-09-28T03:00:30.273Z,942.44
2022-09-28T03:01:30.181Z,942.41
2022-09-28T03:02:30.326Z,942.38
2022-09-28T03:03:31.037Z,942.33
2022-09-28T03:04:30.159Z,942.38
2022-09-28T03:05:30.174Z,942.30
2022-09-28T03:06:30.031Z,942.25
2022-09-28T03:07:30.071Z,942.27
2022-09-28T03:08:30.072Z,942.27
2022-09-28T03:09:30.031Z,942.23
2022-09-28T03:10:30.039Z,942.17
2022-09-28T03:11:35.283Z,942.18
2022-09-28T03:12:29.994Z,942.15
2022-09-28T03:13:29.961Z,942.15
2022-09-28T03:14:29.962Z,942.14
2022-09-28T03:15:29.969Z,942.10
2022-09-28T03:16:29.989Z,942.15
2022-09-28T03:17:29.922Z,942.09
2022-09-28T03:18:29.893Z,942.15
2022-09-28T03:19:29.962Z,942.13
2022-09-28T03:20:29.860Z,942.15
2022-09-28T03:21:29.840Z,942.15
2022-09-28T03:22:30.202Z,942.13
2022-09-28T03:23:29.829Z,942.16
2022-09-28T03:24:29.792Z,942.15
2022-09-28T03:25:29.873Z,942.12
2022-09-28T03:26:29.790Z,942.03
2022-09-28T03:27:29.743Z,942.07
2022-09-28T03:28:29.812Z,942.08
2022-09-28T03:29:29.819Z,942.08
2022-09-28T03:30:29.756Z,942.04
2022-09-28T03:31:29.731Z,942.10
2022-09-28T03:32:29.679Z,942.08
2022-09-28T03:33:29.846Z,942.03
2022-09-28T03:34:29.649Z,942.09
2022-09-28T03:35:29.738Z,942.11
2022-09-28T03:36:29.690Z,942.10
2022-09-28T03:37:29.747Z,942.11
2022-09-28T03:38:29.612Z,942.09
2022-09-28T03:39:29.593Z,942.08
2022-09-28T03:40:29.740Z,942.07
2022-09-28T03:41:29.693Z,942.07
2022-09-28T03:42:29.562Z,942.04
2022-09-28T03:43:29.561Z,942.06
2022-09-28T03:44:29.547Z,942.04
2022-09-28T03:45:29.619Z,942.04
2022-09-28T03:46:29.550Z,942.00
2022-09-28T03:47:29.559Z,941.98
2022-09-28T03:48:32.355Z,941.98
2022-09-28T03:49:29.499Z,941.99
2022-09-28T03:50:29.486Z,941.96
2022-09-28T03:51:29.457Z,941.95
2022-09-28T03:52:29.479Z,941.89
2022-09-28T03:53:29.509Z,941.88
2022-09-28T03:54:29.429Z,941.90
2022-09-28T03:55:29.461Z,941.84
2022-09-28T03:56:29.418Z,941.88
2022-09-28T03:57:29.374Z,941.83
2022-09-28T03:58:29.407Z,941.81
2022-09-28T03:59:29.458Z,941.81
2022-09-28T04:00:29.356Z,941.82
2022-09-28T04:01:29.409Z,941.78
2022-09-28T04:02:29.394Z,941.77
2022-09-28T04:03:29.316Z,941.80
2022-09-28T04:04:29.335Z,941.77
2022-09-28T04:05:29.280Z,941.75
2022-09-28T04:06:29.364Z,941.74
2022-09-28T04:07:31.218Z,941.77
2022-09-28T04:08:29.245Z,941.75
2022-09-28T04:09:29.214Z,941.72
2022-09-28T04:10:29.255Z,941.77
2022-09-28T04:11:42.853Z,941.79
2022-09-28T04:12:30.185Z,941.71
2022-09-28T04:13:29.187Z,941.69
2022-09-28T04:14:29.141Z,941.64
2022-09-28T04:15:29.193Z,941.60
2022-09-28T04:16:29.166Z,941.58
2022-09-28T04:17:29.144Z,941.61
2022-09-28T04:18:29.139Z,941.61
2022-09-28T04:19:29.121Z,941.57
2022-09-28T04:20:29.054Z,941.52
2022-09-28T04:21:29.065Z,941.58
2022-09-28T04:22:29.072Z,941.46
2022-09-28T04:23:29.165Z,941.59
2022-09-28T04:24:29.086Z,941.59
2022-09-28T04:25:29.003Z,941.62
2022-09-28T04:26:28.992Z,941.59
2022-09-28T04:27:28.997Z,941.59
2022-09-28T04:28:29.007Z,941.59
2022-09-28T04:29:29.018Z,941.52
2022-09-28T04:30:29.666Z,941.56
2022-09-28T04:31:29.075Z,941.58
2022-09-28T04:32:28.933Z,941.55
2022-09-28T04:33:28.898Z,941.52
2022-09-28T04:34:33.169Z,941.57
2022-09-28T04:35:29.914Z,941.59
2022-09-28T04:36:29.172Z,941.57
2022-09-28T04:37:28.933Z,941.60
2022-09-28T04:38:48.833Z,941.63
2022-09-28T04:39:29.902Z,941.62
2022-09-28T04:40:28.896Z,941.61
2022-09-28T04:41:28.905Z,941.60
2022-09-28T04:42:28.769Z,941.66
2022-09-28T04:43:28.832Z,941.66
2022-09-28T04:44:28.815Z,941.65
2022-09-28T04:45:28.884Z,941.66
2022-09-28T04:46:28.731Z,941.67
2022-09-28T04:47:28.720Z,941.67
2022-09-28T04:48:28.705Z,941.63
2022-09-28T04:49:28.707Z,941.65
2022-09-28T04:50:28.731Z,941.60
2022-09-28T04:51:28.675Z,941.65
2022-09-28T04:52:28.662Z,941.63
2022-09-28T04:53:28.661Z,941.69
2022-09-28T04:54:28.705Z,941.70
2022-09-28T04:55:28.599Z,941.68
2022-09-28T04:56:28.590Z,941.63
2022-09-28T04:57:28.616Z,941.64
2022-09-28T04:58:28.611Z,941.65
2022-09-28T04:59:28.596Z,941.60
2022-09-28T05:00:28.562Z,941.63
2022-09-28T05:01:28.616Z,941.63
2022-09-28T05:02:28.583Z,941.64
2022-09-28T05:03:28.502Z,941.68
2022-09-28T05:04:28.800Z,941.67
2022-09-28T05:05:28.494Z,941.70
2022-09-28T05:06:28.557Z,941.68
2022-09-28T05:07:29.415Z,941.70
2022-09-28T05:08:28.526Z,941.68
2022-09-28T05:09:28.480Z,941.62
2022-09-28T05:10:28.467Z,941.58
2022-09-28T05:11:28.438Z,941.62
2022-09-28T05:12:28.420Z,941.61
2022-09-28T05:13:28.392Z,941.61
2022-09-28T05:14:28.429Z,941.64
2022-09-28T05:15:28.471Z,941.67
2022-09-28T05:16:28.426Z,941.71
2022-09-28T05:17:28.468Z,941.78
2022-09-28T05:18:28.317Z,941.79
2022-09-28T05:19:28.547Z,941.83
2022-09-28T05:20:28.387Z,941.86
2022-09-28T05:21:28.299Z,941.87
2022-09-28T05:22:28.304Z,941.87
2022-09-28T05:23:28.280Z,941.86
2022-09-28T05:24:28.252Z,941.83
2022-09-28T05:25:28.186Z,941.83
2022-09-28T05:26:28.186Z,941.86
2022-09-28T05:27:28.184Z,941.87
2022-09-28T05:28:28.204Z,941.92
2022-09-28T05:29:32.037Z,941.86
2022-09-28T05:30:28.173Z,941.86
2022-09-28T05:31:28.163Z,941.90
2022-09-28T05:32:28.135Z,941.95
2022-09-28T05:33:28.096Z,941.96
2022-09-28T05:34:28.116Z,941.93
2022-09-28T05:35:28.375Z,941.82
2022-09-28T05:36:28.133Z,941.85
2022-09-28T05:37:28.066Z,941.84
2022-09-28T05:38:28.056Z,941.82
2022-09-28T05:39:28.293Z,941.78
2022-09-28T05:40:28.026Z,941.70
2022-09-28T05:41:27.953Z,941.62
2022-09-28T05:42:27.977Z,941.60
2022-09-28T05:43:27.971Z,941.55
2022-09-28T05:44:28.072Z,941.54
2022-09-28T05:45:27.999Z,941.51
2022-09-28T05:46:28.002Z,941.51
2022-09-28T05:47:27.874Z,941.52
2022-09-28T05:48:27.924Z,941.48
2022-09-28T05:49:31.380Z,941.47
2022-09-28T05:50:27.883Z,941.45
2022-09-28T05:51:28.596Z,941.41
2022-09-28T05:52:27.831Z,941.40
2022-09-28T05:53:27.844Z,941.38
2022-09-28T05:54:28.915Z,941.33
2022-09-28T05:55:27.845Z,941.31
2022-09-28T05:56:27.774Z,941.34
2022-09-28T05:57:27.816Z,941.31
2022-09-28T05:58:27.781Z,941.26
2022-09-28T05:59:27.802Z,941.25
2022-09-28T06:00:27.741Z,941.25
2022-09-28T06:01:27.789Z,941.20
2022-09-28T06:02:27.764Z,941.22
2022-09-28T06:03:27.740Z,941.23
2022-09-28T06:04:27.722Z,941.24
2022-09-28T06:05:27.676Z,941.28
2022-09-28T06:06:27.672Z,941.23
2022-09-28T06:07:27.685Z,941.25
2022-09-28T06:08:27.668Z,941.31
2022-09-28T06:09:27.600Z,941.29
2022-09-28T06:10:27.612Z,941.31
2022-09-28T06:11:27.647Z,941.34
2022-09-28T06:12:27.635Z,941.39
2022-09-28T06:13:27.582Z,941.40
2022-09-28T06:14:27.590Z,941.40
2022-09-28T06:15:27.552Z,941.41
2022-09-28T06:16:27.637Z,941.38
2022-09-28T06:17:27.522Z,941.40
2022-09-28T06:18:27.567Z,941.32
2022-09-28T06:19:27.661Z,941.38
2022-09-28T06:20:28.647Z,941.35
2022-09-28T06:21:27.467Z,941.37
2022-09-28T06:22:27.476Z,941.36
2022-09-28T06:23:27.429Z,941.26
2022-09-28T06:24:27.466Z,941.20
2022-09-28T06:25:27.442Z,941.19
2022-09-28T06:26:27.864Z,941.15
2022-09-28T06:27:27.510Z,941.10
2022-09-28T06:28:29.181Z,941.04
2022-09-28T06:29:27.374Z,941.05
2022-09-28T06:30:27.483Z,941.03
2022-09-28T06:31:27.382Z,940.97
2022-09-28T06:32:27.339Z,940.97
2022-09-28T06:33:28.059Z,940.99
2022-09-28T06:34:27.292Z,940.99
2022-09-28T06:35:27.394Z,940.93
2022-09-28T06:36:27.283Z,940.98
2022-09-28T06:37:27.261Z,940.98
2022-09-28T06:38:27.277Z,940.89
2022-09-28T06:39:27.228Z,940.90
2022-09-28T06:40:28.090Z,940.88
2022-09-28T06:41:27.472Z,940.89
2022-09-28T06:42:27.218Z,940.88
2022-09-28T06:43:30.869Z,940.88
2022-09-28T06:44:28.188Z,940.88
2022-09-28T06:45:27.160Z,940.79
2022-09-28T06:46:27.264Z,940.85
2022-09-28T06:47:27.143Z,940.82
2022-09-28T06:48:27.121Z,940.85
2022-09-28T06:49:27.117Z,940.87
2022-09-28T06:50:27.151Z,940.91
2022-09-28T06:51:27.155Z,940.90
2022-09-28T06:52:27.127Z,940.93
2022-09-28T06:53:27.247Z,940.96
2022-09-28T06:54:27.049Z,940.99
2022-09-28T06:55:27.066Z,940.97
2022-09-28T06:56:31.970Z,940.92
2022-09-28T06:57:28.015Z,941.02
2022-09-28T06:58:27.023Z,940.95
2022-09-28T06:59:27.003Z,940.93
2022-09-28T07:00:26.959Z,940.85
2022-09-28T07:01:27.159Z,940.88
2022-09-28T07:02:26.996Z,940.90
2022-09-28T07:03:27.063Z,940.88
2022-09-28T07:04:26.984Z,940.94
2022-09-28T07:05:26.880Z,940.91
2022-09-28T07:06:26.952Z,940.95
2022-09-28T07:07:26.914Z,940.97
2022-09-28T07:08:26.948Z,940.96
2022-09-28T07:09:32.615Z,941.00
2022-09-28T07:10:27.961Z,941.08
2022-09-28T07:11:26.862Z,941.03
2022-09-28T07:12:26.863Z,940.99
2022-09-28T07:13:48.612Z,941.02
2022-09-28T07:14:44.123Z,941.02
2022-09-28T07:15:27.781Z,940.97
2022-09-28T07:16:32.414Z,941.06
2022-09-28T07:17:27.964Z,941.09
2022-09-28T07:18:26.753Z,940.95
2022-09-28T07:19:26.738Z,940.97
2022-09-28T07:20:26.745Z,941.03
2022-09-28T07:21:30.160Z,941.03
2022-09-28T07:22:39.660Z,941.05
2022-09-28T07:23:27.673Z,941.06
2022-09-28T07:24:26.804Z,941.11
2022-09-28T07:25:26.627Z,941.10
2022-09-28T07:26:26.713Z,941.11
2022-09-28T07:27:28.956Z,941.06
2022-09-28T07:28:26.653Z,941.08
2022-09-28T07:29:26.642Z,941.09
2022-09-28T07:30:26.812Z,941.11
2022-09-28T07:31:26.661Z,941.10
2022-09-28T07:32:26.594Z,941.17
2022-09-28T07:33:26.522Z,941.19
2022-09-28T07:34:26.515Z,941.19
2022-09-28T07:35:26.482Z,941.16
2022-09-28T07:36:26.512Z,941.15
2022-09-28T07:37:26.441Z,941.15
2022-09-28T07:38:26.452Z,941.20
2022-09-28T07:39:26.411Z,941.19
2022-09-28T07:40:26.513Z,941.16
2022-09-28T07:41:26.408Z,941.16
2022-09-28T07:42:26.441Z,941.18
2022-09-28T07:43:26.342Z,941.19
2022-09-28T07:44:26.332Z,941.21
2022-09-28T07:45:26.335Z,941.21
2022-09-28T07:46:26.425Z,941.24
2022-09-28T07:47:29.649Z,941.21
2022-09-28T07:48:27.331Z,941.21
2022-09-28T07:49:26.260Z,941.19
2022-09-28T07:50:26.240Z,941.19
2022-09-28T07:51:26.388Z,941.18
2022-09-28T07:52:26.533Z,941.20
2022-09-28T07:53:26.266Z,941.25
2022-09-28T07:54:26.191Z,941.24
2022-09-28T07:55:26.230Z,941.25
2022-09-28T07:56:26.310Z,941.27
2022-09-28T07:57:26.252Z,941.23
2022-09-28T07:58:26.380Z,941.22
2022-09-28T07:59:26.139Z,941.28
2022-09-28T08:00:29.800Z,941.22
2022-09-28T08:01:27.212Z,941.29
2022-09-28T08:02:26.168Z,941.25
2022-09-28T08:03:26.179Z,941.25
2022-09-28T08:04:26.101Z,941.27
2022-09-28T08:05:26.090Z,941.25
2022-09-28T08:06:26.696Z,941.26
2022-09-28T08:07:26.230Z,941.19
2022-09-28T08:08:26.066Z,941.25
2022-09-28T08:09:25.989Z,941.24
2022-09-28T08:10:26.057Z,941.27
2022-09-28T08:11:25.957Z,941.28
2022-09-28T08:12:25.968Z,941.23
2022-09-28T08:13:27.146Z,941.22
2022-09-28T08:14:25.929Z,941.24
2022-09-28T08:15:25.997Z,941.32
2022-09-28T08:16:26.071Z,941.29
2022-09-28T08:17:25.921Z,941.33
2022-09-28T08:18:25.897Z,941.39
2022-09-28T08:19:26.112Z,941.33
2022-09-28T08:20:26.150Z,941.38
2022-09-28T08:21:25.889Z,941.38
2022-09-28T08:22:25.805Z,941.33
2022-09-28T08:23:25.806Z,941.40
2022-09-28T08:24:25.798Z,941.36
2022-09-28T08:25:25.816Z,941.46
2022-09-28T08:26:27.221Z,941.46
2022-09-28T08:27:25.752Z,941.47
2022-09-28T08:28:26.383Z,941.46
2022-09-28T08:29:25.706Z,941.49
2022-09-28T08:30:25.925Z,941.45
2022-09-28T08:31:25.736Z,941.48
2022-09-28T08:32:25.776Z,941.54
2022-09-28T08:33:25.782Z,941.55
2022-09-28T08:34:26.516Z,941.53
2022-09-28T08:35:25.717Z,941.48
2022-09-28T08:36:25.761Z,941.52
2022-09-28T08:37:25.810Z,941.51
2022-09-28T08:38:25.781Z,941.49
2022-09-28T08:39:25.705Z,941.50
2022-09-28T08:40:25.619Z,941.54
2022-09-28T08:41:33.323Z,941.56
2022-09-28T08:42:26.758Z,941.58
2022-09-28T08:43:25.600Z,941.51
2022-09-28T08:44:25.556Z,941.52
2022-09-28T08:45:25.537Z,941.54
2022-09-28T08:46:27.141Z,941.54
2022-09-28T08:47:25.553Z,941.55
2022-09-28T08:48:25.625Z,941.59
2022-09-28T08:49:26.387Z,941.56
2022-09-28T08:50:25.505Z,941.59
2022-09-28T08:51:25.413Z,941.59
2022-09-28T08:52:25.546Z,941.64
2022-09-28T08:53:25.555Z,941.57
2022-09-28T08:54:25.458Z,941.61
2022-09-28T08:55:25.432Z,941.60
2022-09-28T08:56:25.403Z,941.61
2022-09-28T08:57:25.485Z,941.66
2022-09-28T08:58:25.373Z,941.63
2022-09-28T08:59:25.304Z,941.71
2022-09-28T09:00:25.382Z,941.70
2022-09-28T09:01:25.373Z,941.64
2022-09-28T09:02:25.575Z,941.65
2022-09-28T09:03:25.313Z,941.71
2022-09-28T09:04:25.321Z,941.70
2022-09-28T09:05:25.557Z,941.66
2022-09-28T09:06:25.449Z,941.67
2022-09-28T09:07:25.256Z,941.71
2022-09-28T09:08:25.242Z,941.74
2022-09-28T09:09:25.219Z,941.78
2022-09-28T09:10:25.222Z,941.82
2022-09-28T09:11:25.179Z,941.77
2022-09-28T09:12:25.188Z,941.87
2022-09-28T09:13:25.785Z,941.88
2022-09-28T09:14:25.278Z,941.91
2022-09-28T09:15:25.195Z,941.88
2022-09-28T09:16:25.255Z,941.91
2022-09-28T09:17:25.320Z,941.89
2022-09-28T09:18:25.096Z,941.93
2022-09-28T09:19:25.104Z,942.03
2022-09-28T09:20:25.119Z,941.99
2022-09-28T09:21:25.080Z,942.03
2022-09-28T09:22:25.092Z,942.13
2022-09-28T09:23:25.000Z,942.07
2022-09-28T09:24:25.093Z,942.06
2022-09-28T09:25:24.983Z,942.15
2022-09-28T09:26:26.236Z,942.27
2022-09-28T09:27:25.094Z,942.29
2022-09-28T09:28:24.939Z,942.42
2022-09-28T09:29:24.999Z,942.40
2022-09-28T09:30:27.177Z,942.40
2022-09-28T09:31:24.976Z,942.41
2022-09-28T09:32:24.883Z,942.56
2022-09-28T09:33:24.952Z,942.48
2022-09-28T09:34:24.911Z,942.48
2022-09-28T09:35:29.499Z,942.53
2022-09-28T09:36:25.849Z,942.46
2022-09-28T09:37:25.260Z,942.44
2022-09-28T09:38:24.843Z,942.42
2022-09-28T09:39:24.813Z,942.49
2022-09-28T09:40:24.867Z,942.48
2022-09-28T09:41:24.877Z,942.53
2022-09-28T09:42:24.778Z,942.58
2022-09-28T09:43:28.000Z,942.53
2022-09-28T09:44:25.796Z,942.51
2022-09-28T09:45:24.709Z,942.57
2022-09-28T09:46:24.775Z,942.55
2022-09-28T09:47:24.728Z,942.53
2022-09-28T09:48:24.797Z,942.55
2022-09-28T09:49:24.714Z,942.57
2022-09-28T09:50:24.695Z,942.55
2022-09-28T09:51:24.749Z,942.57
2022-09-28T09:52:24.755Z,942.56
2022-09-28T09:53:24.619Z,942.61
2022-09-28T09:54:24.624Z,942.60
2022-09-28T09:55:29.634Z,942.61
2022-09-28T09:56:25.586Z,942.63
2022-09-28T09:57:24.693Z,942.70
2022-09-28T09:58:24.565Z,942.69
2022-09-28T09:59:24.546Z,942.63
2022-09-28T10:00:24.533Z,942.65
2022-09-28T10:01:24.628Z,942.63
2022-09-28T10:02:24.517Z,942.65
2022-09-28T10:03:24.613Z,942.70
2022-09-28T10:04:24.648Z,942.64
2022-09-28T10:05:24.497Z,942.73
2022-09-28T10:06:24.453Z,942.75
2022-09-28T10:07:24.467Z,942.71
2022-09-28T10:08:24.410Z,942.72
2022-09-28T10:09:24.405Z,942.68
2022-09-28T10:10:24.505Z,942.74
2022-09-28T10:11:24.495Z,942.78
2022-09-28T10:12:24.531Z,942.76
2022-09-28T10:13:24.414Z,942.80
2022-09-28T10:14:24.315Z,942.78
2022-09-28T10:15:24.397Z,942.80
2022-09-28T10:16:26.110Z,942.81
2022-09-28T10:17:24.285Z,942.81
2022-09-28T10:18:24.296Z,942.89
2022-09-28T10:19:24.257Z,942.87
2022-09-28T10:20:24.265Z,942.86
2022-09-28T10:21:24.246Z,942.88
2022-09-28T10:22:24.216Z,942.82
2022-09-28T10:23:24.274Z,942.90
2022-09-28T10:24:24.190Z,942.85
2022-09-28T10:25:24.238Z,942.84
2022-09-28T10:26:25.261Z,942.85
2022-09-28T10:27:24.324Z,942.86
2022-09-28T10:28:24.383Z,942.86
2022-09-28T10:29:24.136Z,942.88
2022-09-28T10:30:24.110Z,942.94
2022-09-28T10:31:24.113Z,942.93
2022-09-28T10:32:24.193Z,942.87
2022-09-28T10:33:24.204Z,942.97
2022-09-28T10:34:24.083Z,942.99
2022-09-28T10:35:24.089Z,942.91
2022-09-28T10:36:24.049Z,942.93
2022-09-28T10:37:24.135Z,942.95
2022-09-28T10:38:24.003Z,943.02
2022-09-28T10:39:24.011Z,943.00
2022-09-28T10:40:24.069Z,942.97
2022-09-28T10:41:24.012Z,942.93
2022-09-28T10:42:24.024Z,942.97
2022-09-28T10:43:23.951Z,942.99
2022-09-28T10:44:23.953Z,943.02
2022-09-28T10:45:23.944Z,943.00
2022-09-28T10:46:23.991Z,943.01
2022-09-28T10:47:23.886Z,943.00
2022-09-28T10:48:23.942Z,942.98
2022-09-28T10:49:24.650Z,942.97
2022-09-28T10:50:23.855Z,942.98
2022-09-28T10:51:23.874Z,942.95
2022-09-28T10:52:23.840Z,942.99
2022-09-28T10:53:23.879Z,942.99
2022-09-28T10:54:23.797Z,943.04
2022-09-28T10:55:23.780Z,943.00
2022-09-28T10:56:23.787Z,943.04
2022-09-28T10:57:23.750Z,943.06
2022-09-28T10:58:23.820Z,943.11
2022-09-28T10:59:23.740Z,943.07
2022-09-28T11:00:23.788Z,943.07
2022-09-28T11:01:23.774Z,943.09
2022-09-28T11:02:23.831Z,943.06
2022-09-28T11:03:23.685Z,943.08
2022-09-28T11:04:23.728Z,943.09
2022-09-28T11:05:23.686Z,943.09
2022-09-28T11:06:23.673Z,943.04
2022-09-28T11:07:23.728Z,943.07
2022-09-28T11:08:23.629Z,943.05
2022-09-28T11:09:27.226Z,943.04
2022-09-28T11:10:24.638Z,943.02
2022-09-28T11:11:23.600Z,943.01
2022-09-28T11:12:23.577Z,943.00
2022-09-28T11:13:23.621Z,942.99
2022-09-28T11:14:23.568Z,943.01
2022-09-28T11:15:23.557Z,943.02
2022-09-28T11:16:23.550Z,943.00
2022-09-28T11:17:23.515Z,943.03
2022-09-28T11:18:23.548Z,943.01
2022-09-28T11:19:23.579Z,943.02
2022-09-28T11:20:27.442Z,942.98
2022-09-28T11:21:23.489Z,943.05
2022-09-28T11:22:23.491Z,943.05
2022-09-28T11:23:23.406Z,943.00
2022-09-28T11:24:23.696Z,942.97
2022-09-28T11:25:23.508Z,942.97
2022-09-28T11:26:23.404Z,942.99
2022-09-28T11:27:23.357Z,943.06
2022-09-28T11:28:23.494Z,943.08
2022-09-28T11:29:23.338Z,943.06
2022-09-28T11:30:23.510Z,943.11
2022-09-28T11:31:23.345Z,943.18
2022-09-28T11:32:23.275Z,943.21
2022-09-28T11:33:23.286Z,943.28
2022-09-28T11:34:31.431Z,943.24
2022-09-28T11:35:24.337Z,943.21
2022-09-28T11:36:23.397Z,943.18
2022-09-28T11:37:23.226Z,943.18
2022-09-28T11:38:23.284Z,943.13
2022-09-28T11:39:23.238Z,943.14
2022-09-28T11:40:23.288Z,943.09
2022-09-28T11:41:23.434Z,943.10
2022-09-28T11:42:23.154Z,943.08
2022-09-28T11:43:23.173Z,943.04
2022-09-28T11:44:23.313Z,943.08
2022-09-28T11:45:23.127Z,943.11
2022-09-28T11:46:23.178Z,943.13
2022-09-28T11:47:23.094Z,943.15
2022-09-28T11:48:23.096Z,943.12
2022-09-28T11:49:23.865Z,943.18
2022-09-28T11:50:24.625Z,943.20
2022-09-28T11:51:23.123Z,943.20
2022-09-28T11:52:23.066Z,943.19
2022-09-28T11:53:23.554Z,943.25
2022-09-28T11:54:23.023Z,943.18
2022-09-28T11:55:23.013Z,943.12
2022-09-28T11:56:23.025Z,943.03
2022-09-28T11:57:22.975Z,943.03
2022-09-28T11:58:22.967Z,943.08
2022-09-28T11:59:23.207Z,943.08
2022-09-28T12:00:22.963Z,943.10
2022-09-28T12:01:22.968Z,943.15
2022-09-28T12:02:23.861Z,943.11
2022-09-28T12:03:23.084Z,943.15
2022-09-28T12:04:22.913Z,943.23
2022-09-28T12:05:22.973Z,943.17
2022-09-28T12:06:23.633Z,943.28
2022-09-28T12:07:22.832Z,943.32
2022-09-28T12:08:23.080Z,943.30
2022-09-28T12:09:22.909Z,943.36
2022-09-28T12:10:22.781Z,943.41
2022-09-28T12:11:22.842Z,943.35
2022-09-28T12:12:22.873Z,943.35
2022-09-28T12:13:22.810Z,943.31
2022-09-28T12:14:22.795Z,943.34
2022-09-28T12:15:22.843Z,943.32
2022-09-28T12:16:53.166Z,943.26
2022-09-28T12:17:23.801Z,943.22
2022-09-28T12:18:22.742Z,943.23
2022-09-28T12:19:22.681Z,943.18
2022-09-28T12:20:22.661Z,943.15
2022-09-28T12:21:22.807Z,943.19
2022-09-28T12:22:22.742Z,943.18
2022-09-28T12:23:22.631Z,943.23
2022-09-28T12:24:22.644Z,943.25
2022-09-28T12:25:22.691Z,943.27
2022-09-28T12:26:22.659Z,943.23
2022-09-28T12:27:22.708Z,943.25
2022-09-28T12:28:22.552Z,943.24
2022-09-28T12:29:22.664Z,943.22